Time;durP1;ratioP1;P1;durP2;ratioP2;P2;SDS_P1;SDS_P2;PMS_P1;PMS_P2;Temp;Humidity;BMP_temperature;BMP_pressure;BME280_temperature;BME280_humidity;BME280_pressure;Samples;Min_cycle;Max_cycle;Signal;HPM_P1;HPM_P2
2023/01/31 00:01:12;;;;;;;26.63;17.00;;;3.80;86.80;;;;;;5013047;28;20701;-91
2023/01/31 00:03:38;;;;;;;34.77;17.30;;;3.80;87.40;;;;;;5013539;28;20656;-91
2023/01/31 00:06:15;;;;;;;29.90;17.63;;;3.80;87.50;;;;;;5013985;28;20188;-90
2023/01/31 00:08:41;;;;;;;31.83;18.50;;;3.80;87.60;;;;;;5013097;28;20228;-91
2023/01/31 00:11:07;;;;;;;29.27;17.00;;;3.80;87.90;;;;;;5012897;28;20203;-91
2023/01/31 00:13:33;;;;;;;27.37;17.90;;;3.70;88.00;;;;;;5013816;28;20186;-91
2023/01/31 00:15:59;;;;;;;29.40;16.80;;;3.80;88.10;;;;;;5012828;28;20176;-90
2023/01/31 00:18:25;;;;;;;22.70;16.47;;;3.80;88.20;;;;;;5012976;28;20179;-91
2023/01/31 00:20:50;;;;;;;27.87;17.50;;;3.80;88.40;;;;;;5012827;28;20207;-91
2023/01/31 00:23:16;;;;;;;37.90;17.90;;;3.70;88.60;;;;;;5012696;28;20227;-90
2023/01/31 00:25:41;;;;;;;23.80;16.93;;;3.80;89.00;;;;;;5013792;28;20274;-90
2023/01/31 00:28:07;;;;;;;35.20;19.63;;;3.70;89.00;;;;;;5014319;28;20185;-91
2023/01/31 00:30:33;;;;;;;26.63;19.73;;;3.70;89.40;;;;;;5016384;28;20197;-87
2023/01/31 00:32:59;;;;;;;39.60;20.30;;;3.70;89.50;;;;;;5016404;28;20254;-90
2023/01/31 00:35:25;;;;;;;39.47;19.30;;;3.70;89.70;;;;;;5016454;28;20272;-89
2023/01/31 00:37:50;;;;;;;33.03;19.80;;;3.60;89.70;;;;;;5016490;28;20174;-89
2023/01/31 00:40:16;;;;;;;34.03;19.60;;;3.50;89.80;;;;;;5016160;28;20354;-89
2023/01/31 00:42:43;;;;;;;37.90;19.00;;;3.50;89.80;;;;;;5016183;28;20182;-89
2023/01/31 00:45:09;;;;;;;39.23;17.87;;;3.70;89.40;;;;;;5015926;28;20272;-90
2023/01/31 00:47:35;;;;;;;35.27;17.90;;;3.70;89.00;;;;;;5017771;28;20180;-89
2023/01/31 00:50:00;;;;;;;34.70;18.17;;;3.80;88.50;;;;;;5016305;28;20187;-89
2023/01/31 00:52:26;;;;;;;42.00;17.23;;;3.70;88.20;;;;;;5016264;28;20670;-90
2023/01/31 00:54:51;;;;;;;27.20;18.40;;;3.70;88.20;;;;;;5015933;28;20170;-90
2023/01/31 00:57:17;;;;;;;20.10;17.27;;;3.70;88.00;;;;;;5016040;28;20178;-90
2023/01/31 00:59:42;;;;;;;32.23;18.07;;;3.80;88.10;;;;;;5015617;28;20177;-89
2023/01/31 01:02:08;;;;;;;39.50;15.27;;;3.80;88.00;;;;;;5015423;28;20208;-89
2023/01/31 01:04:33;;;;;;;36.13;17.37;;;3.80;87.90;;;;;;5016000;28;20191;-90
2023/01/31 01:06:59;;;;;;;30.80;16.17;;;3.80;87.90;;;;;;5015747;28;20234;-90
2023/01/31 01:09:24;;;;;;;39.30;16.97;;;3.90;87.60;;;;;;5015873;28;20183;-89
2023/01/31 01:11:50;;;;;;;32.50;16.00;;;3.90;87.60;;;;;;5015323;28;20621;-90
2023/01/31 01:14:16;;;;;;;35.83;16.83;;;3.90;87.60;;;;;;5015564;28;20187;-90
2023/01/31 01:16:41;;;;;;;37.57;18.23;;;3.80;87.70;;;;;;5015380;28;20181;-90
2023/01/31 01:19:14;;;;;;;30.90;17.57;;;3.80;87.80;;;;;;5015215;28;20179;-90
2023/01/31 01:21:40;;;;;;;34.40;18.60;;;3.80;88.00;;;;;;5015680;28;20213;-91
2023/01/31 01:24:10;;;;;;;31.43;17.00;;;3.90;88.00;;;;;;5016407;28;20271;-91
2023/01/31 01:26:36;;;;;;;41.10;17.10;;;3.90;87.80;;;;;;5016551;28;20184;-91
2023/01/31 01:29:02;;;;;;;40.00;18.93;;;4.00;87.50;;;;;;5017041;28;20177;-90
2023/01/31 01:31:29;;;;;;;29.70;16.73;;;4.00;87.60;;;;;;5015053;28;20209;-90
2023/01/31 01:34:01;;;;;;;28.27;16.63;;;4.00;87.80;;;;;;5017347;28;20181;-90
2023/01/31 01:36:27;;;;;;;31.03;16.83;;;4.00;87.70;;;;;;5015948;28;20179;-90
2023/01/31 01:38:53;;;;;;;25.00;15.93;;;4.00;87.70;;;;;;5016735;28;20672;-91
2023/01/31 01:41:20;;;;;;;29.00;15.67;;;4.00;87.60;;;;;;5016849;28;20205;-90
2023/01/31 01:43:48;;;;;;;31.30;16.63;;;4.00;87.60;;;;;;5014890;28;20173;-90
2023/01/31 01:46:24;;;;;;;40.57;17.27;;;4.00;87.40;;;;;;5016811;28;20220;-91
2023/01/31 01:48:52;;;;;;;38.70;17.50;;;4.00;87.20;;;;;;5017149;28;20182;-91
2023/01/31 01:51:19;;;;;;;29.07;16.33;;;4.10;87.10;;;;;;5016085;28;20214;-90
2023/01/31 01:53:47;;;;;;;27.23;16.57;;;4.10;87.20;;;;;;5016171;28;20174;-90
2023/01/31 01:56:19;;;;;;;25.30;15.80;;;4.10;87.20;;;;;;5017210;28;20561;-91
2023/01/31 01:58:58;;;;;;;32.73;17.23;;;4.20;87.30;;;;;;5016457;28;20319;-91
2023/01/31 02:01:27;;;;;;;23.53;16.57;;;4.20;87.20;;;;;;5016111;28;20214;-91
2023/01/31 02:03:53;;;;;;;26.20;16.73;;;4.20;87.40;;;;;;5016633;28;20174;-90
2023/01/31 02:06:19;;;;;;;29.47;16.97;;;4.20;88.00;;;;;;5016818;28;20247;-90
2023/01/31 02:08:45;;;;;;;35.57;18.80;;;4.10;88.40;;;;;;5017297;28;20200;-91
2023/01/31 02:11:26;;;;;;;22.20;19.70;;;4.10;88.90;;;;;;5015693;28;20283;-90
2023/01/31 02:14:03;;;;;;;32.47;19.63;;;4.00;89.40;;;;;;5016432;28;20169;-90
2023/01/31 02:16:29;;;;;;;33.80;20.17;;;4.00;89.60;;;;;;5015813;28;20172;-90
2023/01/31 02:18:55;;;;;;;29.63;18.93;;;4.00;89.70;;;;;;5016513;28;20178;-90
2023/01/31 02:21:45;;;;;;;32.17;19.07;;;3.90;89.80;;;;;;5015822;28;20209;-91
2023/01/31 02:24:48;;;;;;;27.97;20.67;;;4.00;90.00;;;;;;5018228;28;20608;-91
2023/01/31 02:27:31;;;;;;;31.70;20.60;;;3.90;90.10;;;;;;5015185;28;20558;-90
2023/01/31 02:30:14;;;;;;;22.43;20.17;;;3.90;90.30;;;;;;5015807;28;20179;-90
2023/01/31 02:32:42;;;;;;;27.47;20.87;;;3.90;90.40;;;;;;5015288;28;20309;-91
2023/01/31 02:35:10;;;;;;;23.53;20.70;;;3.90;90.60;;;;;;5015649;28;20212;-90
2023/01/31 02:37:56;;;;;;;32.90;21.77;;;3.90;90.80;;;;;;5014870;28;20180;-90
2023/01/31 02:40:28;;;;;;;30.53;23.80;;;3.90;90.90;;;;;;5014332;28;20198;-90
2023/01/31 02:43:11;;;;;;;35.33;26.00;;;3.90;91.20;;;;;;5014865;28;20179;-90
2023/01/31 02:45:51;;;;;;;31.97;25.47;;;3.90;91.40;;;;;;5015544;28;20171;-90
2023/01/31 02:48:23;;;;;;;32.23;27.13;;;3.80;91.60;;;;;;5014296;28;20168;-90
2023/01/31 02:51:08;;;;;;;36.80;26.37;;;3.80;91.60;;;;;;5013996;28;20290;-91
2023/01/31 02:53:52;;;;;;;36.73;27.13;;;3.70;91.70;;;;;;5014863;28;20551;-91
2023/01/31 02:56:23;;;;;;;31.17;28.13;;;3.60;91.70;;;;;;5014173;28;20190;-90
2023/01/31 02:59:07;;;;;;;35.27;30.00;;;3.50;91.90;;;;;;5014334;28;20182;-91
2023/01/31 03:01:43;;;;;;;32.27;28.43;;;3.30;92.20;;;;;;5015257;28;20275;-90
2023/01/31 03:04:12;;;;;;;35.90;29.17;;;3.30;92.30;;;;;;5014758;28;20177;-91
2023/01/31 03:06:53;;;;;;;32.83;29.37;;;3.30;92.40;;;;;;5014795;28;20197;-92
2023/01/31 03:09:35;;;;;;;36.07;30.07;;;3.20;92.40;;;;;;5015088;28;20178;-91
2023/01/31 03:12:17;;;;;;;33.97;29.63;;;3.10;92.40;;;;;;5015108;28;20299;-90
2023/01/31 03:15:18;;;;;;;39.20;30.80;;;3.00;92.50;;;;;;5014877;28;20248;-90
2023/01/31 03:18:21;;;;;;;38.80;28.43;;;3.00;92.60;;;;;;5015013;28;20320;-90
2023/01/31 03:21:16;;;;;;;42.30;30.77;;;3.00;92.70;;;;;;4983003;28;20206;-91
2023/01/31 03:23:45;;;;;;;35.50;31.97;;;3.00;92.70;;;;;;5012037;28;20185;-90
2023/01/31 03:26:11;;;;;;;39.20;35.13;;;2.90;92.80;;;;;;5015219;28;20177;-90
2023/01/31 03:28:41;;;;;;;41.23;34.60;;;3.00;92.90;;;;;;5015366;28;20182;-91
2023/01/31 03:31:20;;;;;;;44.37;36.23;;;2.90;92.90;;;;;;5014534;28;20202;-92
2023/01/31 03:33:52;;;;;;;39.70;34.40;;;3.00;93.00;;;;;;5014675;28;20166;-91
2023/01/31 03:36:30;;;;;;;48.37;36.37;;;3.10;93.10;;;;;;5017275;28;20181;-90
2023/01/31 03:39:10;;;;;;;49.67;33.50;;;3.20;93.10;;;;;;5016823;28;20170;-90
2023/01/31 03:41:36;;;;;;;44.80;33.30;;;3.20;93.00;;;;;;5014733;28;20693;-90
2023/01/31 03:44:11;;;;;;;46.23;34.23;;;3.20;93.00;;;;;;5016267;28;20170;-91
2023/01/31 03:46:42;;;;;;;38.40;31.43;;;3.30;93.00;;;;;;5015659;28;20166;-90
2023/01/31 03:49:12;;;;;;;36.43;32.20;;;3.30;93.00;;;;;;5016348;28;20733;-90
2023/01/31 03:51:43;;;;;;;35.43;30.13;;;3.30;92.90;;;;;;5016282;28;20706;-91
2023/01/31 03:54:16;;;;;;;43.90;29.07;;;3.40;92.80;;;;;;5016907;28;20238;-90
2023/01/31 03:56:51;;;;;;;40.53;29.03;;;3.40;92.70;;;;;;5016444;28;20169;-91
2023/01/31 03:59:25;;;;;;;48.93;27.67;;;3.50;92.60;;;;;;5017712;28;20265;-91
2023/01/31 04:01:53;;;;;;;44.10;29.10;;;3.40;92.60;;;;;;5017458;28;20301;-90
2023/01/31 04:04:26;;;;;;;47.10;30.70;;;3.50;92.70;;;;;;5019958;28;20186;-90
2023/01/31 04:06:52;;;;;;;49.73;34.67;;;3.50;92.80;;;;;;5020401;28;20264;-90
2023/01/31 04:09:18;;;;;;;42.47;32.53;;;3.60;92.90;;;;;;5020433;28;20267;-91
2023/01/31 04:11:47;;;;;;;53.07;37.27;;;3.60;93.00;;;;;;5019377;28;20202;-90
2023/01/31 04:14:14;;;;;;;47.60;36.60;;;3.60;93.20;;;;;;5020045;28;20288;-90
2023/01/31 04:16:39;;;;;;;52.57;36.70;;;3.60;93.10;;;;;;5021939;28;20558;-90
2023/01/31 04:19:05;;;;;;;50.97;37.20;;;3.60;93.30;;;;;;5023227;28;20180;-90
2023/01/31 04:21:31;;;;;;;46.43;38.70;;;3.60;93.30;;;;;;5024041;28;20204;-90
2023/01/31 04:23:56;;;;;;;52.53;41.57;;;3.70;93.40;;;;;;5023922;28;20670;-90
2023/01/31 04:26:22;;;;;;;58.83;42.83;;;3.70;93.40;;;;;;5021899;28;20226;-90
2023/01/31 04:28:48;;;;;;;46.17;41.23;;;3.80;93.50;;;;;;5021780;28;20200;-90
2023/01/31 04:31:13;;;;;;;50.73;44.50;;;3.80;93.60;;;;;;5021118;28;20295;-91
2023/01/31 04:33:39;;;;;;;44.90;40.03;;;3.80;93.60;;;;;;5020351;28;20187;-90
2023/01/31 04:36:05;;;;;;;45.27;40.43;;;3.90;93.60;;;;;;5019716;28;20173;-90
2023/01/31 04:38:30;;;;;;;44.60;39.83;;;3.80;93.50;;;;;;5019335;28;20192;-90
2023/01/31 04:40:56;;;;;;;56.47;40.10;;;3.90;93.50;;;;;;5020477;28;20283;-91
2023/01/31 04:43:21;;;;;;;48.23;40.37;;;3.90;93.50;;;;;;5019413;28;20274;-91
2023/01/31 04:45:47;;;;;;;51.07;40.37;;;3.90;93.40;;;;;;5021083;28;20181;-90
2023/01/31 04:48:12;;;;;;;54.33;40.03;;;3.90;93.40;;;;;;5018649;28;20242;-90
2023/01/31 04:50:38;;;;;;;41.10;36.83;;;3.90;93.40;;;;;;5018237;28;20567;-90
2023/01/31 04:53:03;;;;;;;43.77;37.27;;;3.90;93.40;;;;;;5018333;28;20292;-91
2023/01/31 04:55:29;;;;;;;48.73;38.07;;;3.90;93.40;;;;;;5019003;28;20175;-90
2023/01/31 04:57:54;;;;;;;41.87;37.00;;;3.90;93.40;;;;;;5019723;28;20173;-90
2023/01/31 05:00:20;;;;;;;44.67;40.00;;;3.90;93.30;;;;;;5019051;28;20203;-90
2023/01/31 05:02:46;;;;;;;47.40;38.93;;;3.90;93.30;;;;;;5018810;28;20175;-90
2023/01/31 05:05:11;;;;;;;59.77;39.33;;;3.90;93.30;;;;;;5019474;28;20178;-90
2023/01/31 05:07:37;;;;;;;51.27;39.67;;;3.90;93.20;;;;;;5020331;28;20184;-90
2023/01/31 05:10:04;;;;;;;42.77;38.37;;;3.90;93.10;;;;;;5020799;28;20214;-90
2023/01/31 05:12:30;;;;;;;44.73;37.67;;;4.00;93.10;;;;;;5019644;28;20296;-91
2023/01/31 05:14:55;;;;;;;41.97;37.93;;;3.90;93.10;;;;;;5019720;28;20214;-90
2023/01/31 05:17:25;;;;;;;55.13;40.90;;;3.90;93.10;;;;;;5021065;28;20176;-90
2023/01/31 05:19:51;;;;;;;47.27;39.03;;;3.90;93.10;;;;;;5019764;28;20178;-90
2023/01/31 05:22:21;;;;;;;41.73;37.43;;;3.90;93.10;;;;;;5020658;28;20174;-90
2023/01/31 05:24:47;;;;;;;45.70;39.17;;;3.90;93.10;;;;;;5020095;28;20274;-90
2023/01/31 05:27:12;;;;;;;50.27;35.10;;;3.90;93.20;;;;;;5019952;28;20552;-90
2023/01/31 05:29:38;;;;;;;51.93;35.77;;;3.90;93.10;;;;;;5020913;28;20193;-90
2023/01/31 05:32:04;;;;;;;43.47;36.03;;;4.00;93.00;;;;;;5020190;28;20228;-91
2023/01/31 05:34:31;;;;;;;45.80;36.90;;;4.00;92.90;;;;;;5019797;28;20180;-90
2023/01/31 05:36:57;;;;;;;38.33;34.43;;;3.90;92.80;;;;;;5020312;28;20301;-89
2023/01/31 05:39:23;;;;;;;46.53;33.33;;;3.90;92.80;;;;;;5019547;28;20725;-90
2023/01/31 05:41:48;;;;;;;36.47;32.63;;;3.90;92.80;;;;;;5019844;28;20734;-91
2023/01/31 05:44:15;;;;;;;55.30;32.90;;;3.90;92.70;;;;;;5019565;28;20174;-90
2023/01/31 05:46:41;;;;;;;36.43;31.90;;;3.90;92.60;;;;;;5018702;28;20203;-90
2023/01/31 05:49:06;;;;;;;41.53;31.30;;;3.90;92.60;;;;;;5018798;28;20183;-90
2023/01/31 05:51:32;;;;;;;32.77;29.03;;;4.00;92.60;;;;;;5018965;28;20211;-90
2023/01/31 05:53:57;;;;;;;41.07;30.07;;;4.00;92.30;;;;;;5018306;28;20565;-90
2023/01/31 05:56:23;;;;;;;50.93;31.13;;;4.00;92.40;;;;;;5018473;28;20180;-90
2023/01/31 05:58:49;;;;;;;33.37;29.70;;;4.00;92.30;;;;;;5018374;28;20186;-90
2023/01/31 06:01:20;;;;;;;31.53;28.37;;;4.10;92.20;;;;;;5017376;28;20583;-89
2023/01/31 06:03:46;;;;;;;39.40;28.53;;;4.10;92.10;;;;;;5018363;28;20183;-89
2023/01/31 06:06:12;;;;;;;51.43;31.60;;;4.10;92.10;;;;;;5018588;28;20246;-90
2023/01/31 06:08:38;;;;;;;36.13;29.50;;;4.10;92.10;;;;;;5018493;28;20216;-90
2023/01/31 06:11:04;;;;;;;41.83;27.43;;;4.10;92.10;;;;;;5018822;28;20196;-90
2023/01/31 06:13:30;;;;;;;46.00;27.70;;;4.10;92.10;;;;;;5018545;28;20173;-90
2023/01/31 06:15:56;;;;;;;29.77;26.60;;;4.20;92.00;;;;;;5018557;28;20182;-90
2023/01/31 06:18:22;;;;;;;34.73;28.93;;;4.20;91.90;;;;;;5019045;28;20180;-90
2023/01/31 06:20:47;;;;;;;37.20;26.97;;;4.20;91.80;;;;;;5019410;28;20558;-90
2023/01/31 06:23:13;;;;;;;46.67;29.00;;;4.30;91.70;;;;;;5017188;28;20179;-90
2023/01/31 06:25:38;;;;;;;32.83;27.57;;;4.30;91.80;;;;;;5017809;28;20614;-90
2023/01/31 06:28:04;;;;;;;35.30;28.13;;;4.20;91.80;;;;;;5017700;28;20190;-90
2023/01/31 06:30:30;;;;;;;43.60;29.23;;;4.30;91.80;;;;;;5017708;28;20204;-90
2023/01/31 06:32:58;;;;;;;40.60;26.37;;;4.30;91.80;;;;;;5016856;28;20207;-90
2023/01/31 06:35:24;;;;;;;42.40;29.93;;;4.30;91.80;;;;;;5016147;28;20188;-89
2023/01/31 06:37:50;;;;;;;42.87;30.40;;;4.30;91.80;;;;;;5017538;28;20277;-91
2023/01/31 06:40:15;;;;;;;33.00;29.20;;;4.30;91.90;;;;;;5016929;28;20201;-91
2023/01/31 06:42:41;;;;;;;40.63;29.57;;;4.20;92.00;;;;;;5016959;28;20187;-89
2023/01/31 06:45:07;;;;;;;49.47;27.37;;;4.30;91.90;;;;;;5016039;28;20674;-88
2023/01/31 06:47:32;;;;;;;35.33;27.37;;;4.20;92.00;;;;;;5015429;28;20186;-90
2023/01/31 06:49:58;;;;;;;45.17;30.17;;;4.20;92.00;;;;;;5017349;28;20558;-90
2023/01/31 06:52:24;;;;;;;45.17;30.40;;;4.20;92.00;;;;;;5017143;28;20618;-90
2023/01/31 06:54:49;;;;;;;45.03;30.40;;;4.20;92.10;;;;;;5016544;28;20227;-90
2023/01/31 06:57:15;;;;;;;42.00;27.80;;;4.20;92.10;;;;;;5016656;28;20228;-90
2023/01/31 06:59:41;;;;;;;33.50;30.10;;;4.20;92.10;;;;;;5016951;28;20188;-91
2023/01/31 07:02:08;;;;;;;35.73;30.23;;;4.20;92.00;;;;;;5016405;28;20279;-90
2023/01/31 07:04:33;;;;;;;36.27;31.50;;;4.20;92.10;;;;;;5016868;28;20184;-91
2023/01/31 07:06:59;;;;;;;32.50;27.20;;;4.20;92.10;;;;;;5016551;28;20187;-90
2023/01/31 07:09:24;;;;;;;47.43;32.77;;;4.20;92.20;;;;;;5016583;28;20183;-90
2023/01/31 07:11:51;;;;;;;35.47;30.17;;;4.20;92.20;;;;;;5016552;28;20231;-90
2023/01/31 07:14:16;;;;;;;34.17;30.63;;;4.20;92.20;;;;;;5016469;28;20203;-90
2023/01/31 07:16:42;;;;;;;38.60;29.70;;;4.30;92.20;;;;;;5016366;28;20181;-90
2023/01/31 07:19:07;;;;;;;46.70;33.83;;;4.20;92.20;;;;;;5018545;28;20332;-91
2023/01/31 07:21:34;;;;;;;34.30;29.57;;;4.30;92.20;;;;;;5016051;28;20231;-90
2023/01/31 07:24:00;;;;;;;36.13;31.03;;;4.30;92.30;;;;;;5015320;28;20185;-89
2023/01/31 07:26:26;;;;;;;49.43;30.40;;;4.30;92.30;;;;;;5017046;28;20326;-90
2023/01/31 07:28:52;;;;;;;39.60;30.90;;;4.30;92.20;;;;;;5015934;28;20646;-90
2023/01/31 07:31:18;;;;;;;41.50;32.63;;;4.30;92.20;;;;;;5027710;28;20287;-90
2023/01/31 07:33:43;;;;;;;40.90;30.30;;;4.30;92.30;;;;;;5016663;28;20212;-90
2023/01/31 07:36:13;;;;;;;44.77;34.53;;;4.30;92.30;;;;;;5015376;28;20187;-88
2023/01/31 07:38:39;;;;;;;38.40;33.70;;;4.30;92.40;;;;;;5016842;28;20187;-90
2023/01/31 07:41:05;;;;;;;36.33;32.73;;;4.30;92.40;;;;;;5015589;28;20199;-89
2023/01/31 07:43:31;;;;;;;50.93;35.33;;;4.30;92.40;;;;;;5015159;28;20266;-90
2023/01/31 07:45:57;;;;;;;39.97;33.57;;;4.30;92.40;;;;;;5014236;28;20268;-90
2023/01/31 07:48:23;;;;;;;40.70;31.60;;;4.40;92.40;;;;;;5015226;28;20199;-90
2023/01/31 07:50:51;;;;;;;45.23;32.13;;;4.40;92.20;;;;;;5014125;28;20340;-89
2023/01/31 07:53:17;;;;;;;37.57;34.30;;;4.50;92.20;;;;;;5015057;28;20765;-89
2023/01/31 07:55:46;;;;;;;37.53;32.43;;;4.40;92.30;;;;;;5016303;28;20199;-89
2023/01/31 07:58:12;;;;;;;39.90;36.07;;;4.50;92.30;;;;;;5016107;28;20200;-89
2023/01/31 08:03:33;;;;;;;50.83;37.63;;;4.50;92.50;;;;;;5018783;28;20179;-90
2023/01/31 08:06:10;;;;;;;50.33;39.50;;;4.50;92.50;;;;;;5016487;28;20212;-90
2023/01/31 08:08:36;;;;;;;53.37;38.13;;;4.50;92.50;;;;;;5016600;28;20180;-90
2023/01/31 08:11:05;;;;;;;39.13;35.10;;;4.50;92.40;;;;;;5017334;28;20197;-90
2023/01/31 08:13:32;;;;;;;40.33;36.07;;;4.50;92.40;;;;;;5017925;28;20268;-90
2023/01/31 08:15:58;;;;;;;61.77;37.87;;;4.50;92.30;;;;;;5016815;28;20193;-90
2023/01/31 08:18:24;;;;;;;48.27;37.00;;;4.60;92.30;;;;;;5018077;28;20179;-90
2023/01/31 08:20:49;;;;;;;43.90;36.03;;;4.60;92.30;;;;;;5018039;28;20678;-90
2023/01/31 08:23:15;;;;;;;44.17;37.27;;;4.60;92.40;;;;;;5017720;28;20199;-90
2023/01/31 08:25:40;;;;;;;52.93;39.10;;;4.60;92.40;;;;;;5019574;28;20271;-90
2023/01/31 08:28:06;;;;;;;41.77;37.33;;;4.60;92.40;;;;;;5017986;28;20178;-89
2023/01/31 08:30:32;;;;;;;44.90;38.43;;;4.60;92.40;;;;;;5015282;28;20208;-90
2023/01/31 08:32:57;;;;;;;56.60;39.37;;;4.60;92.40;;;;;;5013573;28;20258;-90
2023/01/31 08:35:25;;;;;;;42.97;38.50;;;4.60;92.50;;;;;;5012612;28;20669;-89
2023/01/31 08:37:51;;;;;;;46.57;41.60;;;4.60;92.50;;;;;;5012100;28;20242;-90
2023/01/31 08:40:17;;;;;;;44.73;40.27;;;4.60;92.60;;;;;;5013332;28;20198;-90
2023/01/31 08:42:42;;;;;;;47.87;43.00;;;4.60;92.70;;;;;;5013294;28;20264;-89
2023/01/31 08:45:09;;;;;;;51.50;40.93;;;4.60;92.80;;;;;;5014967;28;20184;-90
2023/01/31 08:47:35;;;;;;;54.27;44.60;;;4.70;92.80;;;;;;5013976;28;20183;-89
2023/01/31 08:50:01;;;;;;;47.43;42.53;;;4.70;92.90;;;;;;5015567;28;20191;-89
2023/01/31 08:52:26;;;;;;;51.13;45.57;;;4.70;93.10;;;;;;5016450;28;20205;-89
2023/01/31 08:54:52;;;;;;;50.40;45.23;;;4.60;93.30;;;;;;5018208;28;20203;-90
2023/01/31 08:57:19;;;;;;;52.87;47.87;;;4.70;93.40;;;;;;5016732;28;20184;-89
2023/01/31 08:59:45;;;;;;;54.30;48.80;;;4.60;93.50;;;;;;5017916;28;20181;-90
2023/01/31 09:02:13;;;;;;;59.83;53.50;;;4.70;93.70;;;;;;5019095;28;20267;-90
2023/01/31 09:04:39;;;;;;;58.03;52.00;;;4.60;93.70;;;;;;5017588;28;20745;-89
2023/01/31 09:07:04;;;;;;;55.50;50.60;;;4.60;93.90;;;;;;5016246;28;20271;-89
2023/01/31 09:09:30;;;;;;;64.17;54.27;;;4.60;93.90;;;;;;5015984;28;20180;-90
2023/01/31 09:11:55;;;;;;;57.53;52.17;;;4.70;93.80;;;;;;5016267;28;20615;-90
2023/01/31 09:14:21;;;;;;;59.73;54.00;;;4.70;93.80;;;;;;5015994;28;20177;-89
2023/01/31 09:16:46;;;;;;;60.13;53.80;;;4.70;93.80;;;;;;5017766;28;20181;-90
2023/01/31 09:19:12;;;;;;;61.10;54.30;;;4.80;93.80;;;;;;5016123;28;20169;-90
2023/01/31 09:21:37;;;;;;;58.60;51.60;;;4.80;93.80;;;;;;5017059;28;20254;-89
2023/01/31 09:24:03;;;;;;;57.50;51.40;;;4.80;93.70;;;;;;5016801;28;20247;-89
2023/01/31 09:26:29;;;;;;;53.23;47.93;;;4.80;93.70;;;;;;5020111;28;20177;-89
2023/01/31 09:28:56;;;;;;;56.50;51.07;;;4.90;93.70;;;;;;5022169;28;20187;-90
2023/01/31 09:31:22;;;;;;;58.53;53.13;;;4.90;93.80;;;;;;5021018;28;20196;-90
2023/01/31 09:33:48;;;;;;;58.10;53.47;;;4.90;93.90;;;;;;5026490;28;20252;-90
2023/01/31 09:36:19;;;;;;;58.57;52.70;;;4.90;94.10;;;;;;5022772;28;20188;-88
2023/01/31 09:38:45;;;;;;;59.73;54.43;;;4.90;94.20;;;;;;5015219;28;20239;-89
2023/01/31 09:41:34;;;;;;;65.83;60.03;;;4.90;94.30;;;;;;5015773;28;20200;-90
2023/01/31 09:44:19;;;;;;;64.67;59.60;;;4.90;94.30;;;;;;5017795;28;20615;-90
2023/01/31 09:46:54;;;;;;;67.47;62.30;;;5.00;94.30;;;;;;5021515;28;20180;-90
2023/01/31 09:49:30;;;;;;;63.40;58.27;;;5.00;94.30;;;;;;5017631;28;20178;-90
2023/01/31 09:52:01;;;;;;;67.77;59.27;;;5.00;94.40;;;;;;5016622;28;20302;-89
2023/01/31 09:54:34;;;;;;;73.43;67.43;;;5.00;94.40;;;;;;5016316;28;20271;-89
2023/01/31 09:57:02;;;;;;;65.33;59.53;;;5.10;94.40;;;;;;5017819;28;20203;-89
2023/01/31 09:59:38;;;;;;;69.93;64.27;;;5.10;94.50;;;;;;5016215;28;20181;-90
2023/01/31 10:02:27;;;;;;;64.93;59.63;;;5.00;94.50;;;;;;5015485;28;20322;-89
2023/01/31 10:05:02;;;;;;;70.33;65.17;;;5.10;94.50;;;;;;5016429;28;20176;-90
2023/01/31 10:07:36;;;;;;;78.33;71.33;;;5.10;94.50;;;;;;5016325;28;20680;-90
2023/01/31 10:10:28;;;;;;;71.00;65.97;;;5.10;94.60;;;;;;5017387;28;20271;-91
2023/01/31 10:12:59;;;;;;;73.60;67.63;;;5.10;94.70;;;;;;5016830;28;20204;-90
2023/01/31 10:15:35;;;;;;;70.60;65.33;;;5.10;94.80;;;;;;5015740;28;20200;-89
2023/01/31 10:18:11;;;;;;;72.80;67.13;;;5.20;94.90;;;;;;5018434;28;20228;-89
2023/01/31 10:20:48;;;;;;;70.97;66.00;;;5.10;95.00;;;;;;5014784;28;20234;-89
2023/01/31 10:23:35;;;;;;;72.87;66.73;;;5.20;94.90;;;;;;5016328;28;20176;-89
2023/01/31 10:26:05;;;;;;;74.23;67.67;;;5.20;94.90;;;;;;5017821;28;20181;-89
2023/01/31 10:28:41;;;;;;;74.90;69.53;;;5.20;94.90;;;;;;5019342;28;20552;-90
2023/01/31 10:31:22;;;;;;;77.53;72.10;;;5.20;95.00;;;;;;5023894;28;20231;-89
2023/01/31 10:34:05;;;;;;;83.20;76.30;;;5.20;95.00;;;;;;5028344;28;20173;-90
2023/01/31 10:36:39;;;;;;;78.17;72.30;;;5.20;94.90;;;;;;5028933;28;20534;-90
2023/01/31 10:39:20;;;;;;;80.17;74.60;;;5.20;94.90;;;;;;5025101;28;20170;-89
2023/01/31 10:42:00;;;;;;;83.23;76.63;;;5.30;94.90;;;;;;5019875;28;20201;-89
2023/01/31 10:44:38;;;;;;;84.93;78.73;;;5.30;94.90;;;;;;5015248;28;20184;-88
2023/01/31 10:47:13;;;;;;;82.83;77.07;;;5.30;94.90;;;;;;5014854;28;20665;-90
2023/01/31 10:49:45;;;;;;;85.70;79.60;;;5.30;94.90;;;;;;5013896;28;20220;-89
2023/01/31 10:52:37;;;;;;;88.43;82.13;;;5.30;94.90;;;;;;5016400;28;20228;-90
2023/01/31 10:55:34;;;;;;;88.97;81.90;;;5.30;94.80;;;;;;5014807;28;20303;-88
2023/01/31 10:58:00;;;;;;;80.00;73.57;;;5.40;94.80;;;;;;5015275;28;20177;-90
2023/01/31 11:00:30;;;;;;;80.87;74.93;;;5.50;94.70;;;;;;5015249;28;20205;-89
2023/01/31 11:02:57;;;;;;;81.53;75.43;;;5.50;94.70;;;;;;5016807;28;20154;-90
2023/01/31 11:05:25;;;;;;;78.43;73.63;;;5.50;94.60;;;;;;5015095;28;20170;-89
2023/01/31 11:07:51;;;;;;;87.87;80.07;;;5.60;94.60;;;;;;5014850;28;20177;-89
2023/01/31 11:10:31;;;;;;;80.00;74.83;;;5.50;94.60;;;;;;5014745;28;20194;-88
2023/01/31 11:13:06;;;;;;;89.67;82.97;;;5.60;94.70;;;;;;5014611;28;20220;-87
2023/01/31 11:15:38;;;;;;;87.73;81.77;;;5.60;94.70;;;;;;5014803;28;20549;-88
2023/01/31 11:18:04;;;;;;;90.57;83.67;;;5.60;94.80;;;;;;5014507;28;20174;-88
2023/01/31 11:20:34;;;;;;;93.80;87.27;;;5.60;95.00;;;;;;5013492;28;20201;-87
2023/01/31 11:23:01;;;;;;;94.20;88.20;;;5.60;95.10;;;;;;5014533;28;20224;-88
2023/01/31 11:25:29;;;;;;;102.27;95.07;;;5.70;95.20;;;;;;5014408;28;20177;-88
2023/01/31 11:28:15;;;;;;;100.50;92.67;;;5.70;95.30;;;;;;5013194;28;20177;-88
2023/01/31 11:30:40;;;;;;;101.00;94.03;;;5.60;95.30;;;;;;5013014;28;20580;-87
2023/01/31 11:33:06;;;;;;;104.50;97.00;;;5.70;95.40;;;;;;5012709;28;20200;-88
2023/01/31 11:35:33;;;;;;;106.60;99.50;;;5.70;95.50;;;;;;5013074;28;20213;-88
2023/01/31 11:38:00;;;;;;;104.53;97.00;;;5.80;95.50;;;;;;5012670;28;20208;-88
2023/01/31 11:40:32;;;;;;;104.27;96.83;;;5.70;95.60;;;;;;5012696;28;20741;-88
2023/01/31 11:43:19;;;;;;;99.30;92.20;;;5.70;95.60;;;;;;5012792;28;20545;-88
2023/01/31 11:45:52;;;;;;;98.33;91.87;;;5.70;95.60;;;;;;5012677;28;20173;-87
2023/01/31 11:48:22;;;;;;;101.67;94.80;;;5.80;95.70;;;;;;5013105;28;20180;-89
2023/01/31 11:50:57;;;;;;;98.87;92.40;;;5.70;95.70;;;;;;5013056;28;20208;-88
2023/01/31 11:53:38;;;;;;;99.10;92.70;;;5.70;95.70;;;;;;5012967;28;20192;-87
2023/01/31 11:56:14;;;;;;;102.23;95.70;;;5.80;95.70;;;;;;5012865;28;20222;-87
2023/01/31 11:58:42;;;;;;;105.37;98.77;;;5.80;95.70;;;;;;5012892;28;20678;-87
2023/01/31 12:01:16;;;;;;;93.07;87.33;;;5.80;95.70;;;;;;5013615;28;20209;-87
2023/01/31 12:03:57;;;;;;;91.80;86.33;;;5.90;95.70;;;;;;5012768;28;20165;-87
2023/01/31 12:06:37;;;;;;;93.33;87.47;;;5.90;95.80;;;;;;5013750;28;20158;-87
2023/01/31 12:09:24;;;;;;;101.40;94.63;;;6.00;95.80;;;;;;5012666;28;20263;-88
2023/01/31 12:11:53;;;;;;;99.77;93.50;;;6.00;95.80;;;;;;5011991;28;20703;-88
2023/01/31 12:14:19;;;;;;;107.33;100.83;;;6.00;95.80;;;;;;5013797;28;20541;-87
2023/01/31 12:16:47;;;;;;;104.80;98.37;;;6.00;95.80;;;;;;5013948;28;20264;-87
2023/01/31 12:19:12;;;;;;;102.80;96.17;;;6.00;95.90;;;;;;5012524;28;20544;-87
2023/01/31 12:21:59;;;;;;;108.33;101.27;;;6.00;95.80;;;;;;5013559;28;20197;-88
2023/01/31 12:24:44;;;;;;;103.97;97.73;;;6.10;95.80;;;;;;5015475;28;20165;-88
2023/01/31 12:27:13;;;;;;;106.43;100.33;;;6.10;95.90;;;;;;5015652;28;20189;-88
2023/01/31 12:30:08;;;;;;;105.87;99.57;;;6.20;95.90;;;;;;5016253;28;20276;-87
2023/01/31 12:33:03;;;;;;;105.67;99.03;;;6.20;95.90;;;;;;5016136;28;20201;-88
2023/01/31 12:35:55;;;;;;;105.73;99.43;;;6.30;95.90;;;;;;5003616;28;20280;-88
2023/01/31 12:38:23;;;;;;;106.40;100.00;;;6.30;95.90;;;;;;5017153;28;20166;-88
2023/01/31 12:41:17;;;;;;;102.90;96.63;;;6.30;95.90;;;;;;5015831;28;20197;-88
2023/01/31 12:44:11;;;;;;;106.80;99.87;;;6.40;95.90;;;;;;5016247;28;20161;-87
2023/01/31 12:47:04;;;;;;;107.33;100.97;;;6.40;95.80;;;;;;5017841;28;20150;-87
2023/01/31 12:50:00;;;;;;;110.90;104.10;;;6.40;95.80;;;;;;5017301;28;20196;-87
2023/01/31 12:52:54;;;;;;;107.10;100.93;;;6.50;95.80;;;;;;5016534;28;20208;-88
2023/01/31 12:55:43;;;;;;;104.67;97.77;;;6.50;95.80;;;;;;4965061;28;20186;-88